sensor_id;sensor_type;location;lat;lon;timestamp;pressure;altitude;pressure_sealevel;temperature;humidity
12785;BME280;6456;42.680;23.260;2023-05-17T00:00:15;94075.94;;;15.86;100.00
12785;BME280;6456;42.680;23.260;2023-05-17T00:02:42;94082.03;;;15.81;100.00
12785;BME280;6456;42.680;23.260;2023-05-17T00:05:10;94010.13;;;15.36;100.00
12785;BME280;6456;42.680;23.260;2023-05-17T00:07:37;94057.72;;;15.48;100.00
12785;BME280;6456;42.680;23.260;2023-05-17T00:10:05;94011.09;;;15.15;100.00
12785;BME280;6456;42.680;23.260;2023-05-17T00:12:32;94036.69;;;15.41;100.00
12785;BME280;6456;42.680;23.260;2023-05-17T00:14:59;94088.06;;;15.67;100.00
12785;BME280;6456;42.680;23.260;2023-05-17T00:17:26;94033.22;;;15.35;100.00
12785;BME280;6456;42.680;23.260;2023-05-17T00:19:53;94066.25;;;15.60;100.00
12785;BME280;6456;42.680;23.260;2023-05-17T00:22:21;93998.03;;;15.08;100.00
12785;BME280;6456;42.680;23.260;2023-05-17T00:24:48;94000.38;;;15.00;100.00
12785;BME280;6456;42.680;23.260;2023-05-17T00:27:15;94015.53;;;15.09;100.00
12785;BME280;6456;42.680;23.260;2023-05-17T00:29:42;93964.59;;;14.65;100.00
12785;BME280;6456;42.680;23.260;2023-05-17T00:32:11;93984.03;;;14.76;100.00
12785;BME280;6456;42.680;23.260;2023-05-17T00:34:38;93981.09;;;14.72;100.00
12785;BME280;6456;42.680;23.260;2023-05-17T00:37:05;94068.94;;;15.28;100.00
12785;BME280;6456;42.680;23.260;2023-05-17T00:39:34;93941.75;;;14.54;100.00
12785;BME280;6456;42.680;23.260;2023-05-17T00:42:00;93967.47;;;14.59;100.00
12785;BME280;6456;42.680;23.260;2023-05-17T00:44:27;93996.63;;;14.64;100.00
12785;BME280;6456;42.680;23.260;2023-05-17T00:46:54;93978.06;;;14.59;100.00
12785;BME280;6456;42.680;23.260;2023-05-17T00:49:21;94024.91;;;14.85;100.00
12785;BME280;6456;42.680;23.260;2023-05-17T00:51:50;93964.75;;;14.49;100.00
12785;BME280;6456;42.680;23.260;2023-05-17T00:54:17;94050.41;;;14.96;100.00
12785;BME280;6456;42.680;23.260;2023-05-17T00:56:46;94087.13;;;15.14;100.00
12785;BME280;6456;42.680;23.260;2023-05-17T00:59:13;94016.78;;;14.65;100.00
12785;BME280;6456;42.680;23.260;2023-05-17T01:01:41;94032.75;;;14.75;100.00
12785;BME280;6456;42.680;23.260;2023-05-17T01:04:08;94057.78;;;14.89;100.00
12785;BME280;6456;42.680;23.260;2023-05-17T01:06:36;94089.44;;;15.06;100.00
12785;BME280;6456;42.680;23.260;2023-05-17T01:09:03;94054.63;;;14.92;100.00
12785;BME280;6456;42.680;23.260;2023-05-17T01:11:47;94064.16;;;14.93;100.00
12785;BME280;6456;42.680;23.260;2023-05-17T01:14:28;94078.97;;;14.89;100.00
12785;BME280;6456;42.680;23.260;2023-05-17T01:17:02;94000.63;;;14.35;100.00
12785;BME280;6456;42.680;23.260;2023-05-17T01:19:50;94074.41;;;14.85;100.00
12785;BME280;6456;42.680;23.260;2023-05-17T01:22:26;94065.31;;;14.75;100.00
12785;BME280;6456;42.680;23.260;2023-05-17T01:25:06;93941.19;;;13.94;100.00
12785;BME280;6456;42.680;23.260;2023-05-17T01:27:40;93930.22;;;13.85;100.00
12785;BME280;6456;42.680;23.260;2023-05-17T01:30:09;93937.69;;;13.88;100.00
12785;BME280;6456;42.680;23.260;2023-05-17T01:32:39;94029.06;;;14.49;100.00
12785;BME280;6456;42.680;23.260;2023-05-17T01:35:09;94045.00;;;14.54;100.00
12785;BME280;6456;42.680;23.260;2023-05-17T01:37:36;94091.81;;;14.75;100.00
12785;BME280;6456;42.680;23.260;2023-05-17T01:40:04;94021.84;;;14.40;100.00
12785;BME280;6456;42.680;23.260;2023-05-17T01:42:34;94027.56;;;14.32;100.00
12785;BME280;6456;42.680;23.260;2023-05-17T01:45:08;94040.22;;;14.30;100.00
12785;BME280;6456;42.680;23.260;2023-05-17T01:47:42;94027.22;;;14.28;100.00
12785;BME280;6456;42.680;23.260;2023-05-17T01:50:14;94009.91;;;14.15;100.00
12785;BME280;6456;42.680;23.260;2023-05-17T01:52:47;93989.16;;;14.02;100.00
12785;BME280;6456;42.680;23.260;2023-05-17T01:55:19;94067.97;;;14.49;100.00
12785;BME280;6456;42.680;23.260;2023-05-17T01:57:52;94068.53;;;14.51;100.00
12785;BME280;6456;42.680;23.260;2023-05-17T02:00:21;94046.09;;;14.32;100.00
12785;BME280;6456;42.680;23.260;2023-05-17T02:02:49;94033.28;;;14.24;100.00
12785;BME280;6456;42.680;23.260;2023-05-17T02:05:16;94059.97;;;14.44;100.00
12785;BME280;6456;42.680;23.260;2023-05-17T02:07:43;94069.31;;;14.51;100.00
12785;BME280;6456;42.680;23.260;2023-05-17T02:10:10;94057.84;;;14.41;100.00
12785;BME280;6456;42.680;23.260;2023-05-17T02:12:37;94055.19;;;14.41;100.00
12785;BME280;6456;42.680;23.260;2023-05-17T02:15:05;94035.13;;;14.23;100.00
12785;BME280;6456;42.680;23.260;2023-05-17T02:17:37;94067.44;;;14.47;100.00
12785;BME280;6456;42.680;23.260;2023-05-17T02:20:06;93982.69;;;13.93;100.00
12785;BME280;6456;42.680;23.260;2023-05-17T02:22:33;94057.84;;;14.41;100.00
12785;BME280;6456;42.680;23.260;2023-05-17T02:25:00;94006.66;;;14.08;100.00
12785;BME280;6456;42.680;23.260;2023-05-17T02:27:27;94070.84;;;14.42;100.00
12785;BME280;6456;42.680;23.260;2023-05-17T02:29:55;94012.16;;;14.02;100.00
12785;BME280;6456;42.680;23.260;2023-05-17T02:32:22;94071.81;;;14.36;100.00
12785;BME280;6456;42.680;23.260;2023-05-17T02:34:50;93947.44;;;13.61;100.00
12785;BME280;6456;42.680;23.260;2023-05-17T02:37:17;94068.31;;;14.31;100.00
12785;BME280;6456;42.680;23.260;2023-05-17T02:39:44;93996.53;;;13.79;100.00
12785;BME280;6456;42.680;23.260;2023-05-17T02:42:11;93993.03;;;13.73;100.00
12785;BME280;6456;42.680;23.260;2023-05-17T02:44:38;93983.75;;;13.71;100.00
12785;BME280;6456;42.680;23.260;2023-05-17T02:47:05;94013.81;;;13.86;100.00
12785;BME280;6456;42.680;23.260;2023-05-17T02:49:32;93994.84;;;13.68;100.00
12785;BME280;6456;42.680;23.260;2023-05-17T02:52:00;94071.50;;;14.11;100.00
12785;BME280;6456;42.680;23.260;2023-05-17T02:54:27;93984.00;;;13.47;100.00
12785;BME280;6456;42.680;23.260;2023-05-17T02:56:54;93999.06;;;13.47;100.00
12785;BME280;6456;42.680;23.260;2023-05-17T02:59:21;94026.44;;;13.58;100.00
12785;BME280;6456;42.680;23.260;2023-05-17T03:01:48;94032.34;;;13.48;100.00
12785;BME280;6456;42.680;23.260;2023-05-17T03:04:15;94090.13;;;13.78;100.00
12785;BME280;6456;42.680;23.260;2023-05-17T03:06:44;94109.56;;;13.88;100.00
12785;BME280;6456;42.680;23.260;2023-05-17T03:09:13;94039.13;;;13.39;100.00
12785;BME280;6456;42.680;23.260;2023-05-17T03:11:40;94046.16;;;13.33;100.00
12785;BME280;6456;42.680;23.260;2023-05-17T03:14:07;94111.78;;;13.75;100.00
12785;BME280;6456;42.680;23.260;2023-05-17T03:16:34;94117.81;;;13.70;100.00
12785;BME280;6456;42.680;23.260;2023-05-17T03:19:01;94099.94;;;13.61;100.00
12785;BME280;6456;42.680;23.260;2023-05-17T03:21:28;94121.41;;;13.64;100.00
12785;BME280;6456;42.680;23.260;2023-05-17T03:23:56;94100.56;;;13.29;100.00
12785;BME280;6456;42.680;23.260;2023-05-17T03:26:24;94096.94;;;13.35;100.00
12785;BME280;6456;42.680;23.260;2023-05-17T03:28:52;94079.16;;;13.31;100.00
12785;BME280;6456;42.680;23.260;2023-05-17T03:31:19;94103.00;;;13.53;100.00
12785;BME280;6456;42.680;23.260;2023-05-17T03:33:46;94046.75;;;13.19;100.00
12785;BME280;6456;42.680;23.260;2023-05-17T03:36:13;94109.00;;;13.65;100.00
12785;BME280;6456;42.680;23.260;2023-05-17T03:38:39;94120.94;;;13.67;100.00
12785;BME280;6456;42.680;23.260;2023-05-17T03:41:07;94098.34;;;13.60;100.00
12785;BME280;6456;42.680;23.260;2023-05-17T03:43:35;94113.56;;;13.69;100.00
12785;BME280;6456;42.680;23.260;2023-05-17T03:46:02;94059.44;;;13.38;100.00
12785;BME280;6456;42.680;23.260;2023-05-17T03:48:29;94117.38;;;13.78;100.00
12785;BME280;6456;42.680;23.260;2023-05-17T03:50:56;94043.13;;;13.41;100.00
12785;BME280;6456;42.680;23.260;2023-05-17T03:53:22;94031.53;;;13.26;100.00
12785;BME280;6456;42.680;23.260;2023-05-17T03:55:49;93981.50;;;13.03;100.00
12785;BME280;6456;42.680;23.260;2023-05-17T03:58:16;94097.03;;;13.79;100.00
12785;BME280;6456;42.680;23.260;2023-05-17T04:00:45;94040.47;;;13.41;100.00
12785;BME280;6456;42.680;23.260;2023-05-17T04:03:12;94101.41;;;13.90;100.00
12785;BME280;6456;42.680;23.260;2023-05-17T04:05:39;94012.00;;;13.27;100.00
12785;BME280;6456;42.680;23.260;2023-05-17T04:08:06;94124.53;;;13.99;100.00
12785;BME280;6456;42.680;23.260;2023-05-17T04:10:33;93992.16;;;13.08;100.00
12785;BME280;6456;42.680;23.260;2023-05-17T04:13:00;94002.53;;;13.31;100.00
12785;BME280;6456;42.680;23.260;2023-05-17T04:15:27;93992.44;;;13.28;100.00
12785;BME280;6456;42.680;23.260;2023-05-17T04:17:55;94024.63;;;13.63;100.00
12785;BME280;6456;42.680;23.260;2023-05-17T04:20:22;94133.25;;;14.38;100.00
12785;BME280;6456;42.680;23.260;2023-05-17T04:22:49;94128.88;;;14.49;100.00
12785;BME280;6456;42.680;23.260;2023-05-17T04:25:16;94098.59;;;14.40;100.00
12785;BME280;6456;42.680;23.260;2023-05-17T04:27:43;94061.78;;;14.17;100.00
12785;BME280;6456;42.680;23.260;2023-05-17T04:30:11;94084.31;;;14.41;100.00
12785;BME280;6456;42.680;23.260;2023-05-17T04:32:38;94050.72;;;14.20;100.00
12785;BME280;6456;42.680;23.260;2023-05-17T04:35:08;94123.28;;;14.72;100.00
12785;BME280;6456;42.680;23.260;2023-05-17T04:37:35;94126.50;;;14.74;100.00
12785;BME280;6456;42.680;23.260;2023-05-17T04:40:05;94055.13;;;14.36;100.00
12785;BME280;6456;42.680;23.260;2023-05-17T04:42:35;94080.41;;;14.48;100.00
12785;BME280;6456;42.680;23.260;2023-05-17T04:45:02;94131.66;;;14.91;100.00
12785;BME280;6456;42.680;23.260;2023-05-17T04:47:29;94123.03;;;15.00;100.00
12785;BME280;6456;42.680;23.260;2023-05-17T04:49:56;94070.63;;;14.75;100.00
12785;BME280;6456;42.680;23.260;2023-05-17T04:52:25;94124.81;;;15.21;100.00
12785;BME280;6456;42.680;23.260;2023-05-17T04:54:52;94125.97;;;15.30;100.00
12785;BME280;6456;42.680;23.260;2023-05-17T04:57:19;94085.81;;;15.17;100.00
12785;BME280;6456;42.680;23.260;2023-05-17T04:59:46;94118.31;;;15.39;100.00
12785;BME280;6456;42.680;23.260;2023-05-17T05:02:13;94125.56;;;15.49;100.00
12785;BME280;6456;42.680;23.260;2023-05-17T05:04:40;94137.41;;;15.68;100.00
12785;BME280;6456;42.680;23.260;2023-05-17T05:07:07;94047.72;;;15.23;100.00
12785;BME280;6456;42.680;23.260;2023-05-17T05:09:35;94144.41;;;15.89;100.00
12785;BME280;6456;42.680;23.260;2023-05-17T05:12:02;94143.13;;;15.96;100.00
12785;BME280;6456;42.680;23.260;2023-05-17T05:14:29;94150.63;;;16.04;100.00
12785;BME280;6456;42.680;23.260;2023-05-17T05:16:56;94156.25;;;16.13;100.00
12785;BME280;6456;42.680;23.260;2023-05-17T05:19:23;94154.41;;;16.24;100.00
12785;BME280;6456;42.680;23.260;2023-05-17T05:21:49;94151.78;;;16.29;100.00
12785;BME280;6456;42.680;23.260;2023-05-17T05:24:16;94150.00;;;16.39;100.00
12785;BME280;6456;42.680;23.260;2023-05-17T05:26:44;94123.91;;;16.26;100.00
12785;BME280;6456;42.680;23.260;2023-05-17T05:29:11;94148.19;;;16.50;100.00
12785;BME280;6456;42.680;23.260;2023-05-17T05:31:38;94130.41;;;16.50;100.00
12785;BME280;6456;42.680;23.260;2023-05-17T05:34:05;94146.13;;;16.67;100.00
12785;BME280;6456;42.680;23.260;2023-05-17T05:36:32;94135.78;;;16.65;100.00
12785;BME280;6456;42.680;23.260;2023-05-17T05:38:58;94149.13;;;16.81;100.00
12785;BME280;6456;42.680;23.260;2023-05-17T05:41:25;94123.31;;;16.76;100.00
12785;BME280;6456;42.680;23.260;2023-05-17T05:43:54;94153.69;;;17.00;100.00
12785;BME280;6456;42.680;23.260;2023-05-17T05:46:21;94143.28;;;16.94;100.00
12785;BME280;6456;42.680;23.260;2023-05-17T05:48:48;94141.44;;;17.04;100.00
12785;BME280;6456;42.680;23.260;2023-05-17T05:51:15;94143.31;;;17.14;100.00
12785;BME280;6456;42.680;23.260;2023-05-17T05:53:43;94130.28;;;17.12;100.00
12785;BME280;6456;42.680;23.260;2023-05-17T05:56:09;94097.06;;;17.00;100.00
12785;BME280;6456;42.680;23.260;2023-05-17T05:58:36;94142.53;;;17.33;100.00
12785;BME280;6456;42.680;23.260;2023-05-17T06:01:04;94157.72;;;17.38;100.00
12785;BME280;6456;42.680;23.260;2023-05-17T06:03:31;94103.19;;;17.10;100.00
12785;BME280;6456;42.680;23.260;2023-05-17T06:05:58;94168.41;;;17.58;100.00
12785;BME280;6456;42.680;23.260;2023-05-17T06:08:25;94169.97;;;17.69;100.00
12785;BME280;6456;42.680;23.260;2023-05-17T06:10:52;94067.31;;;17.08;100.00
12785;BME280;6456;42.680;23.260;2023-05-17T06:13:19;94166.25;;;17.60;100.00
12785;BME280;6456;42.680;23.260;2023-05-17T06:15:46;94108.75;;;17.29;100.00
12785;BME280;6456;42.680;23.260;2023-05-17T06:18:14;94147.34;;;17.67;100.00
12785;BME280;6456;42.680;23.260;2023-05-17T06:20:41;94180.06;;;18.03;100.00
12785;BME280;6456;42.680;23.260;2023-05-17T06:23:08;94181.38;;;18.10;100.00
12785;BME280;6456;42.680;23.260;2023-05-17T06:25:35;94114.63;;;17.61;100.00
12785;BME280;6456;42.680;23.260;2023-05-17T06:28:02;94176.28;;;18.19;100.00
12785;BME280;6456;42.680;23.260;2023-05-17T06:30:29;94111.16;;;17.91;100.00
12785;BME280;6456;42.680;23.260;2023-05-17T06:32:56;94179.16;;;18.42;100.00
12785;BME280;6456;42.680;23.260;2023-05-17T06:35:24;94197.81;;;18.52;100.00
12785;BME280;6456;42.680;23.260;2023-05-17T06:37:51;94192.47;;;18.58;100.00
12785;BME280;6456;42.680;23.260;2023-05-17T06:40:18;94118.28;;;18.11;100.00
12785;BME280;6456;42.680;23.260;2023-05-17T06:42:45;94187.94;;;18.63;100.00
12785;BME280;6456;42.680;23.260;2023-05-17T06:45:12;94180.44;;;18.70;100.00
12785;BME280;6456;42.680;23.260;2023-05-17T06:47:39;94181.00;;;18.62;100.00
12785;BME280;6456;42.680;23.260;2023-05-17T06:50:07;94149.59;;;18.39;100.00
12785;BME280;6456;42.680;23.260;2023-05-17T06:52:35;94181.28;;;18.61;100.00
12785;BME280;6456;42.680;23.260;2023-05-17T06:55:03;94167.19;;;18.45;100.00
12785;BME280;6456;42.680;23.260;2023-05-17T06:57:30;94148.53;;;18.40;100.00
12785;BME280;6456;42.680;23.260;2023-05-17T06:59:56;94126.19;;;18.36;100.00
12785;BME280;6456;42.680;23.260;2023-05-17T07:02:23;94182.03;;;18.71;100.00
12785;BME280;6456;42.680;23.260;2023-05-17T07:04:50;94179.84;;;18.83;100.00
12785;BME280;6456;42.680;23.260;2023-05-17T07:07:17;94159.34;;;18.84;100.00
12785;BME280;6456;42.680;23.260;2023-05-17T07:09:45;94181.84;;;19.06;100.00
12785;BME280;6456;42.680;23.260;2023-05-17T07:12:12;94185.53;;;19.20;100.00
12785;BME280;6456;42.680;23.260;2023-05-17T07:14:41;94189.00;;;19.21;100.00
12785;BME280;6456;42.680;23.260;2023-05-17T07:17:09;94200.97;;;19.24;100.00
12785;BME280;6456;42.680;23.260;2023-05-17T07:19:38;94179.97;;;19.12;100.00
12785;BME280;6456;42.680;23.260;2023-05-17T07:22:04;94190.06;;;19.15;100.00
12785;BME280;6456;42.680;23.260;2023-05-17T07:24:31;94150.72;;;18.92;100.00
12785;BME280;6456;42.680;23.260;2023-05-17T07:27:01;94194.56;;;19.19;100.00
12785;BME280;6456;42.680;23.260;2023-05-17T07:29:27;94196.19;;;19.20;100.00
12785;BME280;6456;42.680;23.260;2023-05-17T07:31:54;94192.69;;;19.25;100.00
12785;BME280;6456;42.680;23.260;2023-05-17T07:34:21;94145.13;;;18.98;100.00
12785;BME280;6456;42.680;23.260;2023-05-17T07:36:48;94199.22;;;19.53;100.00
12785;BME280;6456;42.680;23.260;2023-05-17T07:39:15;94196.41;;;19.73;100.00
12785;BME280;6456;42.680;23.260;2023-05-17T07:41:41;94199.56;;;19.75;100.00
12785;BME280;6456;42.680;23.260;2023-05-17T07:44:10;94154.34;;;19.55;100.00
12785;BME280;6456;42.680;23.260;2023-05-17T07:46:36;94201.94;;;20.10;100.00
12785;BME280;6456;42.680;23.260;2023-05-17T07:49:03;94160.88;;;20.06;100.00
12785;BME280;6456;42.680;23.260;2023-05-17T07:51:30;94195.81;;;20.62;100.00
12785;BME280;6456;42.680;23.260;2023-05-17T07:53:57;94179.03;;;20.62;96.44
12785;BME280;6456;42.680;23.260;2023-05-17T07:56:23;94190.53;;;20.81;95.93
12785;BME280;6456;42.680;23.260;2023-05-17T07:58:50;94191.16;;;20.96;96.84
12785;BME280;6456;42.680;23.260;2023-05-17T08:01:18;94192.97;;;21.01;93.53
12785;BME280;6456;42.680;23.260;2023-05-17T08:03:45;94164.59;;;20.81;93.81
12785;BME280;6456;42.680;23.260;2023-05-17T08:06:13;94202.25;;;21.08;94.41
12785;BME280;6456;42.680;23.260;2023-05-17T08:08:40;94190.69;;;21.13;92.43
12785;BME280;6456;42.680;23.260;2023-05-17T08:11:08;94194.63;;;21.39;91.83
12785;BME280;6456;42.680;23.260;2023-05-17T08:13:35;94195.63;;;21.43;90.89
12785;BME280;6456;42.680;23.260;2023-05-17T08:16:02;94157.00;;;21.31;91.48
12785;BME280;6456;42.680;23.260;2023-05-17T08:18:33;94189.69;;;21.65;91.01
12785;BME280;6456;42.680;23.260;2023-05-17T08:21:01;94183.41;;;21.56;89.56
12785;BME280;6456;42.680;23.260;2023-05-17T08:23:29;94152.81;;;21.43;88.95
12785;BME280;6456;42.680;23.260;2023-05-17T08:25:58;94116.38;;;21.10;88.71
12785;BME280;6456;42.680;23.260;2023-05-17T08:28:32;94175.03;;;21.44;88.84
12785;BME280;6456;42.680;23.260;2023-05-17T08:31:02;94171.47;;;21.48;88.16
12785;BME280;6456;42.680;23.260;2023-05-17T08:33:29;94152.50;;;21.45;87.61
12785;BME280;6456;42.680;23.260;2023-05-17T08:35:58;94055.75;;;20.82;87.30
12785;BME280;6456;42.680;23.260;2023-05-17T08:38:28;94173.53;;;21.70;87.47
12785;BME280;6456;42.680;23.260;2023-05-17T08:40:55;94179.53;;;21.81;86.65
12785;BME280;6456;42.680;23.260;2023-05-17T08:43:24;94104.31;;;21.45;88.31
12785;BME280;6456;42.680;23.260;2023-05-17T08:45:51;94177.34;;;22.01;85.67
12785;BME280;6456;42.680;23.260;2023-05-17T08:48:19;94179.22;;;22.01;85.23
12785;BME280;6456;42.680;23.260;2023-05-17T08:50:46;94173.63;;;22.16;84.87
12785;BME280;6456;42.680;23.260;2023-05-17T08:53:16;94161.38;;;22.10;86.66
12785;BME280;6456;42.680;23.260;2023-05-17T08:55:44;94150.56;;;22.15;86.57
12785;BME280;6456;42.680;23.260;2023-05-17T08:58:13;94174.94;;;22.32;85.74
12785;BME280;6456;42.680;23.260;2023-05-17T09:00:42;94163.81;;;22.39;84.18
12785;BME280;6456;42.680;23.260;2023-05-17T09:03:14;94167.97;;;22.31;84.12
12785;BME280;6456;42.680;23.260;2023-05-17T09:05:43;94143.91;;;21.99;87.50
12785;BME280;6456;42.680;23.260;2023-05-17T09:08:10;94156.97;;;21.87;86.38
12785;BME280;6456;42.680;23.260;2023-05-17T09:10:39;94119.44;;;21.54;85.82
12785;BME280;6456;42.680;23.260;2023-05-17T09:13:07;94135.47;;;21.92;86.66
12785;BME280;6456;42.680;23.260;2023-05-17T09:15:34;94156.69;;;22.34;87.46
12785;BME280;6456;42.680;23.260;2023-05-17T09:18:02;94156.66;;;22.48;86.20
12785;BME280;6456;42.680;23.260;2023-05-17T09:20:29;94153.94;;;22.66;83.74
12785;BME280;6456;42.680;23.260;2023-05-17T09:22:59;94110.50;;;22.51;83.10
12785;BME280;6456;42.680;23.260;2023-05-17T09:25:28;94146.75;;;22.48;81.98
12785;BME280;6456;42.680;23.260;2023-05-17T09:28:00;94148.81;;;22.38;84.13
12785;BME280;6456;42.680;23.260;2023-05-17T09:30:27;94149.91;;;22.23;85.54
12785;BME280;6456;42.680;23.260;2023-05-17T09:32:54;94152.50;;;22.42;85.62
12785;BME280;6456;42.680;23.260;2023-05-17T09:35:26;94143.38;;;22.56;85.11
12785;BME280;6456;42.680;23.260;2023-05-17T09:37:56;94149.16;;;22.63;84.77
12785;BME280;6456;42.680;23.260;2023-05-17T09:40:30;94113.50;;;22.63;83.86
12785;BME280;6456;42.680;23.260;2023-05-17T09:42:58;94135.44;;;22.78;82.92
12785;BME280;6456;42.680;23.260;2023-05-17T09:45:25;94137.34;;;22.91;83.78
12785;BME280;6456;42.680;23.260;2023-05-17T09:47:52;94146.28;;;22.73;81.26
12785;BME280;6456;42.680;23.260;2023-05-17T09:50:19;94117.97;;;22.26;82.52
12785;BME280;6456;42.680;23.260;2023-05-17T09:52:46;94116.34;;;22.25;84.83
12785;BME280;6456;42.680;23.260;2023-05-17T09:55:13;94148.13;;;22.46;84.66
12785;BME280;6456;42.680;23.260;2023-05-17T09:57:40;94090.66;;;22.11;82.70
12785;BME280;6456;42.680;23.260;2023-05-17T10:00:10;94129.25;;;22.37;83.99
12785;BME280;6456;42.680;23.260;2023-05-17T10:02:38;94139.19;;;22.50;84.57
12785;BME280;6456;42.680;23.260;2023-05-17T10:05:10;94138.41;;;22.50;83.71
12785;BME280;6456;42.680;23.260;2023-05-17T10:07:37;94132.47;;;22.39;83.46
12785;BME280;6456;42.680;23.260;2023-05-17T10:10:07;94130.78;;;22.29;83.74
12785;BME280;6456;42.680;23.260;2023-05-17T10:12:35;94123.50;;;22.16;83.22
12785;BME280;6456;42.680;23.260;2023-05-17T10:15:05;94100.44;;;21.88;84.17
12785;BME280;6456;42.680;23.260;2023-05-17T10:17:33;94118.44;;;21.83;86.25
12785;BME280;6456;42.680;23.260;2023-05-17T10:20:03;94123.06;;;21.96;87.90
12785;BME280;6456;42.680;23.260;2023-05-17T10:22:33;94032.88;;;21.45;85.84
12785;BME280;6456;42.680;23.260;2023-05-17T10:25:00;94052.31;;;21.64;84.12
12785;BME280;6456;42.680;23.260;2023-05-17T10:27:27;94102.22;;;21.93;82.51
12785;BME280;6456;42.680;23.260;2023-05-17T10:29:56;94094.41;;;21.78;81.69
12785;BME280;6456;42.680;23.260;2023-05-17T10:32:27;94066.50;;;21.51;84.34
12785;BME280;6456;42.680;23.260;2023-05-17T10:34:56;94005.03;;;21.14;83.51
12785;BME280;6456;42.680;23.260;2023-05-17T10:37:25;94064.06;;;21.36;83.60
12785;BME280;6456;42.680;23.260;2023-05-17T10:40:01;94054.31;;;21.27;85.09
12785;BME280;6456;42.680;23.260;2023-05-17T10:42:29;93988.25;;;20.90;86.34
12785;BME280;6456;42.680;23.260;2023-05-17T10:44:59;94019.41;;;21.18;84.96
12785;BME280;6456;42.680;23.260;2023-05-17T10:47:30;93971.63;;;20.93;85.27
12785;BME280;6456;42.680;23.260;2023-05-17T10:50:09;93984.78;;;21.08;85.02
12785;BME280;6456;42.680;23.260;2023-05-17T10:52:38;94003.28;;;21.23;85.40
12785;BME280;6456;42.680;23.260;2023-05-17T10:55:11;93925.91;;;20.76;85.12
12785;BME280;6456;42.680;23.260;2023-05-17T10:57:38;93993.44;;;21.19;84.28
12785;BME280;6456;42.680;23.260;2023-05-17T11:00:06;94001.72;;;21.36;84.31
12785;BME280;6456;42.680;23.260;2023-05-17T11:02:39;93992.22;;;21.43;84.09
12785;BME280;6456;42.680;23.260;2023-05-17T11:05:21;93991.91;;;21.31;83.75
12785;BME280;6456;42.680;23.260;2023-05-17T11:07:49;93969.06;;;21.20;83.91
12785;BME280;6456;42.680;23.260;2023-05-17T11:10:16;93945.75;;;21.07;84.95
12785;BME280;6456;42.680;23.260;2023-05-17T11:12:44;93990.31;;;21.30;85.38
12785;BME280;6456;42.680;23.260;2023-05-17T11:15:13;93951.44;;;21.00;85.29
12785;BME280;6456;42.680;23.260;2023-05-17T11:17:48;94016.72;;;21.50;85.92
12785;BME280;6456;42.680;23.260;2023-05-17T11:20:35;94020.38;;;21.54;86.83
12785;BME280;6456;42.680;23.260;2023-05-17T11:23:04;94033.97;;;21.44;85.78
12785;BME280;6456;42.680;23.260;2023-05-17T11:25:32;94042.09;;;21.39;86.07
12785;BME280;6456;42.680;23.260;2023-05-17T11:28:05;94028.97;;;21.05;85.61
12785;BME280;6456;42.680;23.260;2023-05-17T11:30:32;94035.31;;;20.72;87.53
12785;BME280;6456;42.680;23.260;2023-05-17T11:33:02;94054.03;;;20.54;89.47
12785;BME280;6456;42.680;23.260;2023-05-17T11:35:33;94035.63;;;20.28;90.89
12785;BME280;6456;42.680;23.260;2023-05-17T11:38:17;94065.81;;;20.29;93.68
12785;BME280;6456;42.680;23.260;2023-05-17T11:40:45;94088.38;;;20.41;93.04
12785;BME280;6456;42.680;23.260;2023-05-17T11:43:13;94106.34;;;20.36;91.39
12785;BME280;6456;42.680;23.260;2023-05-17T11:45:46;94105.03;;;20.33;92.55
12785;BME280;6456;42.680;23.260;2023-05-17T11:48:15;94081.69;;;20.44;92.90
12785;BME280;6456;42.680;23.260;2023-05-17T11:50:44;94072.16;;;20.57;93.07
12785;BME280;6456;42.680;23.260;2023-05-17T11:53:12;94096.53;;;20.74;92.38
12785;BME280;6456;42.680;23.260;2023-05-17T11:55:42;94048.94;;;20.33;91.85
12785;BME280;6456;42.680;23.260;2023-05-17T11:58:10;94092.19;;;20.59;93.22
12785;BME280;6456;42.680;23.260;2023-05-17T12:00:38;94017.09;;;20.13;92.23
12785;BME280;6456;42.680;23.260;2023-05-17T12:03:15;94099.84;;;20.66;90.48
12785;BME280;6456;42.680;23.260;2023-05-17T12:05:42;94106.53;;;20.63;90.31
12785;BME280;6456;42.680;23.260;2023-05-17T12:08:09;94007.66;;;19.97;90.35
12785;BME280;6456;42.680;23.260;2023-05-17T12:10:44;94037.66;;;20.13;91.62
12785;BME280;6456;42.680;23.260;2023-05-17T12:13:12;94084.16;;;20.35;90.52
12785;BME280;6456;42.680;23.260;2023-05-17T12:15:39;94037.28;;;20.24;91.00
12785;BME280;6456;42.680;23.260;2023-05-17T12:18:06;94090.72;;;20.67;89.74
12785;BME280;6456;42.680;23.260;2023-05-17T12:20:33;94083.84;;;20.79;91.43
12785;BME280;6456;42.680;23.260;2023-05-17T12:23:02;94027.88;;;20.51;87.86
12785;BME280;6456;42.680;23.260;2023-05-17T12:25:29;94059.47;;;20.86;89.37
12785;BME280;6456;42.680;23.260;2023-05-17T12:28:15;93976.88;;;20.28;86.26
12785;BME280;6456;42.680;23.260;2023-05-17T12:30:51;94080.22;;;21.13;87.23
12785;BME280;6456;42.680;23.260;2023-05-17T12:33:18;94078.84;;;21.15;86.85
12785;BME280;6456;42.680;23.260;2023-05-17T12:35:45;94012.53;;;20.75;84.62
12785;BME280;6456;42.680;23.260;2023-05-17T12:38:12;94063.88;;;21.14;84.47
12785;BME280;6456;42.680;23.260;2023-05-17T12:40:39;94054.03;;;20.91;84.12
12785;BME280;6456;42.680;23.260;2023-05-17T12:43:08;94066.16;;;21.02;83.81
12785;BME280;6456;42.680;23.260;2023-05-17T12:45:36;94045.72;;;20.92;83.18
12785;BME280;6456;42.680;23.260;2023-05-17T12:48:06;94061.19;;;20.95;84.20
12785;BME280;6456;42.680;23.260;2023-05-17T12:50:33;94039.72;;;20.82;83.41
12785;BME280;6456;42.680;23.260;2023-05-17T12:53:06;94046.94;;;21.00;84.67
12785;BME280;6456;42.680;23.260;2023-05-17T12:55:35;94050.50;;;20.95;85.09
12785;BME280;6456;42.680;23.260;2023-05-17T12:58:02;94041.16;;;20.74;85.86
12785;BME280;6456;42.680;23.260;2023-05-17T13:00:30;94054.59;;;20.88;86.37